Observation data for Brownfield on 10/14/2019      Previous  Date       Current Mesonet Observations  Soil Data  Daily Summary Page  Observations in Plain Language
KBWS 140500Z 17009KT 15/03 A30 RMK A01 T01520034  RH  046%=      5-min Rain = 0
KBWS 140505Z 18007KT 16/03 A30 RMK A01 T01560029  RH  043%=      5-min Rain = 0
KBWS 140510Z 17007KT 16/03 A30 RMK A01 T01570031  RH  043%=      5-min Rain = 0
KBWS 140515Z 19006KT 16/03 A30 RMK A01 T01570029  RH  043%=      5-min Rain = 0
KBWS 140520Z 20004KT 16/03 A30 RMK A01 T01610026  RH  041%=      5-min Rain = 0
KBWS 140525Z 19005KT 16/02 A30 RMK A01 T01640024  RH  040%=      5-min Rain = 0
KBWS 140530Z 18005KT 16/03 A2999 RMK A01 T01630026  RH  040%=      5-min Rain = 0
KBWS 140535Z 20004KT 16/03 A2999 RMK A01 T01590027  RH  042%=      5-min Rain = 0
KBWS 140540Z 21005KT 16/03 A2999 RMK A01 T01570029  RH  043%=      5-min Rain = 0
KBWS 140545Z 21007KT 16/03 A2999 RMK A01 T01580029  RH  043%=      5-min Rain = 0
KBWS 140550Z 20006KT 16/03 A2999 RMK A01 T01570033  RH  044%=      5-min Rain = 0
KBWS 140555Z 21008KT 16/04 A2999 RMK A01 T01560037  RH  046%=      5-min Rain = 0
KBWS 140600Z 22009KT 17/04 A2999 RMK A01 T01670043  RH  045%=      5-min Rain = 0
KBWS 140605Z 22008KT 17/04 A2999 RMK A01 T01730044  RH  043%=      5-min Rain = 0
KBWS 140610Z 22008KT 17/04 A2999 RMK A01 T01710044  RH  044%=      5-min Rain = 0
KBWS 140615Z 22008KT 17/05 A2999 RMK A01 T01690045  RH  045%=      5-min Rain = 0
KBWS 140620Z 22008KT 17/05 A2999 RMK A01 T01670046  RH  045%=      5-min Rain = 0
KBWS 140625Z 22008KT 16/05 A2999 RMK A01 T01640046  RH  046%=      5-min Rain = 0
KBWS 140630Z 22007KT 16/05 A2999 RMK A01 T01580046  RH  048%=      5-min Rain = 0
KBWS 140635Z 22007KT 16/05 A2999 RMK A01 T01550046  RH  049%=      5-min Rain = 0
KBWS 140640Z 23007KT 15/05 A2999 RMK A01 T01530046  RH  050%=      5-min Rain = 0
KBWS 140645Z 23007KT 15/04 A2999 RMK A01 T01520044  RH  049%=      5-min Rain = 0
KBWS 140650Z 23007KT 15/04 A2998 RMK A01 T01510042  RH  049%=      5-min Rain = 0
KBWS 140655Z 23007KT 15/04 A2998 RMK A01 T01490041  RH  049%=      5-min Rain = 0
KBWS 140700Z 23007KT 15/04 A2998 RMK A01 T01500040  RH  049%=      5-min Rain = 0
KBWS 140705Z 24008KT 15/04 A2999 RMK A01 T01490041  RH  049%=      5-min Rain = 0
KBWS 140710Z 24009KT 15/04 A2999 RMK A01 T01490042  RH  050%=      5-min Rain = 0
KBWS 140715Z 23008KT 15/04 A2999 RMK A01 T01520044  RH  050%=      5-min Rain = 0
KBWS 140720Z 23008KT 16/05 A2999 RMK A01 T01550046  RH  049%=      5-min Rain = 0
KBWS 140725Z 23009KT 16/05 A2999 RMK A01 T01560049  RH  050%=      5-min Rain = 0
KBWS 140730Z 23008KT 15/05 A2999 RMK A01 T01540051  RH  051%=      5-min Rain = 0
KBWS 140735Z 23008KT 16/05 A2999 RMK A01 T01570053  RH  051%=      5-min Rain = 0
KBWS 140740Z 23008KT 16/06 A2999 RMK A01 T01570055  RH  052%=      5-min Rain = 0
KBWS 140745Z 24007KT 16/06 A2999 RMK A01 T01560057  RH  053%=      5-min Rain = 0
KBWS 140750Z 25006KT 15/06 A2998 RMK A01 T01500059  RH  056%=      5-min Rain = 0
KBWS 140755Z 26007KT 15/06 A2998 RMK A01 T01460059  RH  057%=      5-min Rain = 0
KBWS 140800Z 26007KT 15/06 A2998 RMK A01 T01480059  RH  056%=      5-min Rain = 0
KBWS 140805Z 25007KT 15/06 A2998 RMK A01 T01480059  RH  056%=      5-min Rain = 0
KBWS 140810Z 25007KT 14/06 A2998 RMK A01 T01440058  RH  058%=      5-min Rain = 0
KBWS 140815Z 24007KT 14/06 A2998 RMK A01 T01410058  RH  059%=      5-min Rain = 0
KBWS 140820Z 24008KT 14/06 A2998 RMK A01 T01420058  RH  058%=      5-min Rain = 0
KBWS 140825Z 24008KT 14/06 A2998 RMK A01 T01430059  RH  059%=      5-min Rain = 0
KBWS 140830Z 25007KT 14/06 A2998 RMK A01 T01420060  RH  059%=      5-min Rain = 0
KBWS 140835Z 25006KT 14/06 A2998 RMK A01 T01390060  RH  060%=      5-min Rain = 0
KBWS 140840Z 26006KT 14/06 A2998 RMK A01 T01400060  RH  060%=      5-min Rain = 0
KBWS 140845Z 25006KT 14/06 A2998 RMK A01 T01430061  RH  059%=      5-min Rain = 0
KBWS 140850Z 25007KT 14/06 A2998 RMK A01 T01430061  RH  059%=      5-min Rain = 0
KBWS 140855Z 25007KT 14/06 A2998 RMK A01 T01430061  RH  059%=      5-min Rain = 0
KBWS 140900Z 25007KT 15/06 A2998 RMK A01 T01450061  RH  058%=      5-min Rain = 0
KBWS 140905Z 25006KT 15/06 A2998 RMK A01 T01450061  RH  058%=      5-min Rain = 0
KBWS 140910Z 25006KT 14/06 A2997 RMK A01 T01440061  RH  059%=      5-min Rain = 0
KBWS 140915Z 25006KT 14/06 A2997 RMK A01 T01430061  RH  059%=      5-min Rain = 0
KBWS 140920Z 24005KT 14/06 A2997 RMK A01 T01430061  RH  059%=      5-min Rain = 0
KBWS 140925Z 25005KT 14/06 A2997 RMK A01 T01410062  RH  060%=      5-min Rain = 0
KBWS 140930Z 25005KT 14/06 A2997 RMK A01 T01390063  RH  062%=      5-min Rain = 0
KBWS 140935Z 25005KT 14/06 A2997 RMK A01 T01390063  RH  062%=      5-min Rain = 0
KBWS 140940Z 25005KT 14/06 A2997 RMK A01 T01390063  RH  062%=      5-min Rain = 0
KBWS 140945Z 25006KT 14/06 A2997 RMK A01 T01400063  RH  061%=      5-min Rain = 0
KBWS 140950Z 25006KT 14/06 A2997 RMK A01 T01410063  RH  061%=      5-min Rain = 0
KBWS 140955Z 24005KT 14/06 A2997 RMK A01 T01430063  RH  060%=      5-min Rain = 0
KBWS 141000Z 24005KT 14/06 A2997 RMK A01 T01410063  RH  061%=      5-min Rain = 0
KBWS 141005Z 25006KT 14/06 A2997 RMK A01 T01390064  RH  062%=      5-min Rain = 0
KBWS 141010Z 26007KT 14/06 A2998 RMK A01 T01380062  RH  062%=      5-min Rain = 0
KBWS 141015Z 25006KT 14/06 A2997 RMK A01 T01420062  RH  060%=      5-min Rain = 0
KBWS 141020Z 27006KT 14/06 A2997 RMK A01 T01440061  RH  059%=      5-min Rain = 0
KBWS 141025Z 28005KT 14/06 A2997 RMK A01 T01430063  RH  060%=      5-min Rain = 0
KBWS 141030Z 28006KT 14/06 A2997 RMK A01 T01410062  RH  061%=      5-min Rain = 0
KBWS 141035Z 28005KT 14/06 A2997 RMK A01 T01440061  RH  059%=      5-min Rain = 0
KBWS 141040Z 28006KT 14/06 A2997 RMK A01 T01440061  RH  059%=      5-min Rain = 0
KBWS 141045Z 28007KT 15/06 A2997 RMK A01 T01480058  RH  056%=      5-min Rain = 0
KBWS 141050Z 29006KT 15/06 A2997 RMK A01 T01500058  RH  055%=      5-min Rain = 0
KBWS 141055Z 28007KT 15/06 A2997 RMK A01 T01450058  RH  057%=      5-min Rain = 0
KBWS 141100Z 27007KT 14/06 A2998 RMK A01 T01440059  RH  058%=      5-min Rain = 0
KBWS 141105Z 26005KT 14/06 A2998 RMK A01 T01420058  RH  058%=      5-min Rain = 0
KBWS 141110Z 27005KT 14/06 A2998 RMK A01 T01420059  RH  059%=      5-min Rain = 0
KBWS 141115Z 28007KT 14/06 A2998 RMK A01 T01410060  RH  059%=      5-min Rain = 0
KBWS 141120Z 27006KT 14/06 A2998 RMK A01 T01390060  RH  060%=      5-min Rain = 0
KBWS 141125Z 28007KT 14/06 A2999 RMK A01 T01380060  RH  061%=      5-min Rain = 0
KBWS 141130Z 28007KT 14/06 A2999 RMK A01 T01380059  RH  060%=      5-min Rain = 0
KBWS 141135Z 28007KT 14/06 A2999 RMK A01 T01400060  RH  060%=      5-min Rain = 0
KBWS 141140Z 28007KT 14/06 A2998 RMK A01 T01400060  RH  060%=      5-min Rain = 0
KBWS 141145Z 27006KT 14/06 A2998 RMK A01 T01410060  RH  059%=      5-min Rain = 0
KBWS 141150Z 27005KT 14/06 A2998 RMK A01 T01420059  RH  059%=      5-min Rain = 0
KBWS 141155Z 26004KT 14/06 A2998 RMK A01 T01400060  RH  060%=      5-min Rain = 0
KBWS 141200Z 25004KT 14/06 A2998 RMK A01 T01380060  RH  061%=      5-min Rain = 0
KBWS 141205Z 22002KT 13/06 A2999 RMK A01 T01300061  RH  065%=      5-min Rain = 0
KBWS 141210Z 21002KT 12/07 A2999 RMK A01 T01210067  RH  072%=      5-min Rain = 0
KBWS 141215Z 23003KT 12/07 A2999 RMK A01 T01170066  RH  073%=      5-min Rain = 0
KBWS 141220Z 23004KT 12/06 A2999 RMK A01 T01210062  RH  069%=      5-min Rain = 0
KBWS 141225Z 22004KT 12/06 A2999 RMK A01 T01230063  RH  068%=      5-min Rain = 0
KBWS 141230Z 25004KT 12/06 A2999 RMK A01 T01230064  RH  069%=      5-min Rain = 0
KBWS 141235Z 26004KT 13/06 A2999 RMK A01 T01270063  RH  067%=      5-min Rain = 0
KBWS 141240Z 26006KT 13/06 A2999 RMK A01 T01290063  RH  066%=      5-min Rain = 0
KBWS 141245Z 24006KT 13/06 A2999 RMK A01 T01290063  RH  066%=      5-min Rain = 0
KBWS 141250Z 24006KT 13/06 A30 RMK A01 T01280063  RH  066%=      5-min Rain = 0
KBWS 141255Z 24005KT 13/06 A30 RMK A01 T01270063  RH  067%=      5-min Rain = 0
KBWS 141300Z 25006KT 12/06 A30 RMK A01 T01230063  RH  068%=      5-min Rain = 0
KBWS 141305Z 25007KT 12/06 A30 RMK A01 T01230063  RH  068%=      5-min Rain = 0
KBWS 141310Z 26006KT 12/06 A30 RMK A01 T01240062  RH  067%=      5-min Rain = 0
KBWS 141315Z 27006KT 13/06 A30 RMK A01 T01290062  RH  065%=      5-min Rain = 0
KBWS 141320Z 27006KT 13/06 A30 RMK A01 T01310063  RH  065%=      5-min Rain = 0
KBWS 141325Z 26005KT 13/06 A30 RMK A01 T01290063  RH  066%=      5-min Rain = 0
KBWS 141330Z 26006KT 13/07 A30 RMK A01 T01300065  RH  066%=      5-min Rain = 0
KBWS 141335Z 26007KT 14/07 A30 RMK A01 T01350065  RH  064%=      5-min Rain = 0
KBWS 141340Z 26007KT 14/07 A30 RMK A01 T01400065  RH  062%=      5-min Rain = 0
KBWS 141345Z 25005KT 14/07 A30 RMK A01 T01420067  RH  062%=      5-min Rain = 0
KBWS 141350Z 15004KT 14/07 A3001 RMK A01 T01370072  RH  066%=      5-min Rain = 0
KBWS 141355Z 30002KT 14/07 A30 RMK A01 T01350071  RH  067%=      5-min Rain = 0
KBWS 141400Z 28004KT 14/07 A30 RMK A01 T01380071  RH  065%=      5-min Rain = 0
KBWS 141405Z 25002KT 14/08 A3001 RMK A01 T01430075  RH  065%=      5-min Rain = 0
KBWS 141410Z 29002KT 15/07 A3001 RMK A01 T01460074  RH  064%=      5-min Rain = 0
KBWS 141415Z 31003KT 15/07 A3001 RMK A01 T01480073  RH  063%=      5-min Rain = 0
KBWS 141420Z 32003KT 15/07 A3001 RMK A01 T01490073  RH  062%=      5-min Rain = 0
KBWS 141425Z 33003KT 15/07 A3001 RMK A01 T01520074  RH  061%=      5-min Rain = 0
KBWS 141430Z 34003KT 15/07 A3002 RMK A01 T01520071  RH  060%=      5-min Rain = 0
KBWS 141435Z 01002KT 15/07 A3002 RMK A01 T01530072  RH  060%=      5-min Rain = 0
KBWS 141440Z 13005KT 15/08 A3003 RMK A01 T01530081  RH  064%=      5-min Rain = 0
KBWS 141445Z 11002KT 15/08 A3003 RMK A01 T01520081  RH  064%=      5-min Rain = 0
KBWS 141450Z 14004KT 15/08 A3003 RMK A01 T01540084  RH  065%=      5-min Rain = 0
KBWS 141455Z 15006KT 16/09 A3003 RMK A01 T01550086  RH  065%=      5-min Rain = 0
KBWS 141500Z 17002KT 16/08 A3003 RMK A01 T01560081  RH  063%=      5-min Rain = 0
KBWS 141505Z 15007KT 16/09 A3003 RMK A01 T01570087  RH  065%=      5-min Rain = 0
KBWS 141510Z 16005KT 16/09 A3003 RMK A01 T01580086  RH  064%=      5-min Rain = 0
KBWS 141515Z 17007KT 16/09 A3004 RMK A01 T01600086  RH  063%=      5-min Rain = 0
KBWS 141520Z 18004KT 16/09 A3003 RMK A01 T01630088  RH  063%=      5-min Rain = 0
KBWS 141525Z 17006KT 17/09 A3003 RMK A01 T01680092  RH  063%=      5-min Rain = 0
KBWS 141530Z 18006KT 17/09 A3004 RMK A01 T01710090  RH  061%=      5-min Rain = 0
KBWS 141535Z 21005KT 18/09 A3004 RMK A01 T01770089  RH  058%=      5-min Rain = 0
KBWS 141540Z 21005KT 18/09 A3004 RMK A01 T01820090  RH  056%=      5-min Rain = 0
KBWS 141545Z 20003KT 19/09 A3004 RMK A01 T01890091  RH  055%=      5-min Rain = 0
KBWS 141550Z 21006KT 19/09 A3004 RMK A01 T01930092  RH  054%=      5-min Rain = 0
KBWS 141555Z 21006KT 19/09 A3004 RMK A01 T01900091  RH  054%=      5-min Rain = 0
KBWS 141600Z 22007KT 19/09 A3004 RMK A01 T01900091  RH  054%=      5-min Rain = 0
KBWS 141605Z 21007KT 19/09 A3004 RMK A01 T01920091  RH  054%=      5-min Rain = 0
KBWS 141610Z 20007KT 20/09 A3004 RMK A01 T01960094  RH  053%=      5-min Rain = 0
KBWS 141615Z 20008KT 20/09 A3004 RMK A01 T01980093  RH  052%=      5-min Rain = 0
KBWS 141620Z 22008KT 20/09 A3004 RMK A01 T01980094  RH  053%=      5-min Rain = 0
KBWS 141625Z 21008KT 20/10 A3004 RMK A01 T01990095  RH  053%=      5-min Rain = 0
KBWS 141630Z 21010KT 20/10 A3004 RMK A01 T02000095  RH  052%=      5-min Rain = 0
KBWS 141635Z 22008KT 20/10 A3004 RMK A01 T02030098  RH  052%=      5-min Rain = 0
KBWS 141640Z 22010KT 21/10 A3004 RMK A01 T02080099  RH  051%=      5-min Rain = 0
KBWS 141645Z 22012KT 21/10 A3004 RMK A01 T02100096  RH  050%=      5-min Rain = 0
KBWS 141650Z 22009KT 21/10 A3003 RMK A01 T02080098  RH  051%=      5-min Rain = 0
KBWS 141655Z 22009KT 22/10 A3003 RMK A01 T02160103  RH  050%=      5-min Rain = 0
KBWS 141700Z 22009KT 22/10 A3003 RMK A01 T02220104  RH  049%=      5-min Rain = 0
KBWS 141705Z 22009KT 22/10 A3003 RMK A01 T02190104  RH  050%=      5-min Rain = 0
KBWS 141710Z 22009KT 23/11 A3003 RMK A01 T02280107  RH  048%=      5-min Rain = 0
KBWS 141715Z 21010KT 24/11 A3003 RMK A01 T02350111  RH  047%=      5-min Rain = 0
KBWS 141720Z 21010KT 24/11 A3002 RMK A01 T02390110  RH  046%=      5-min Rain = 0
KBWS 141725Z 21009KT 23/11 A3002 RMK A01 T02340109  RH  047%=      5-min Rain = 0
KBWS 141730Z 20009KT 23/11 A3001 RMK A01 T02330111  RH  048%=      5-min Rain = 0
KBWS 141735Z 20011KT 24/11 A3001 RMK A01 T02350111  RH  047%=      5-min Rain = 0
KBWS 141740Z 21011KT 24/11 A3001 RMK A01 T02360111  RH  047%=      5-min Rain = 0
KBWS 141745Z 20011KT 24/11 A3001 RMK A01 T02390113  RH  047%=      5-min Rain = 0
KBWS 141750Z 21010KT 24/11 A30 RMK A01 T02410111  RH  045%=      5-min Rain = 0
KBWS 141755Z 21011KT 24/11 A30 RMK A01 T02360109  RH  047%=      5-min Rain = 0
KBWS 141800Z 20012KT 24/11 A3001 RMK A01 T02360110  RH  047%=      5-min Rain = 0
KBWS 141805Z 21013KT 24/11 A30 RMK A01 T02390109  RH  045%=      5-min Rain = 0
KBWS 141810Z 21012KT 24/11 A30 RMK A01 T02410107  RH  044%=      5-min Rain = 0
KBWS 141815Z 21012G17KT 24/11 A30 RMK A01 T02440110  RH  044%=      5-min Rain = 0
KBWS 141820Z 20013KT 25/10 A30 RMK A01 T02520104  RH  041%=      5-min Rain = 0
KBWS 141825Z 21013KT 25/11 A2999 RMK A01 T02520106  RH  041%=      5-min Rain = 0
KBWS 141830Z 20010KT 26/11 A2999 RMK A01 T02560110  RH  041%=      5-min Rain = 0
KBWS 141835Z 20010KT 26/11 A2998 RMK A01 T02610106  RH  039%=      5-min Rain = 0
KBWS 141840Z 22009KT 26/11 A2998 RMK A01 T02620106  RH  039%=      5-min Rain = 0
KBWS 141845Z 22008KT 26/11 A2998 RMK A01 T02630105  RH  038%=      5-min Rain = 0
KBWS 141850Z 22008KT 26/11 A2998 RMK A01 T02640112  RH  040%=      5-min Rain = 0
KBWS 141855Z 21010KT 27/12 A2997 RMK A01 T02650116  RH  041%=      5-min Rain = 0
KBWS 141900Z 23009KT 27/11 A2997 RMK A01 T02710113  RH  039%=      5-min Rain = 0
KBWS 141905Z 24009G14KT 27/11 A2997 RMK A01 T02710109  RH  038%=      5-min Rain = 0
KBWS 141910Z 24009KT 27/11 A2997 RMK A01 T02720110  RH  038%=      5-min Rain = 0
KBWS 141915Z 22010KT 28/12 A2996 RMK A01 T02750117  RH  039%=      5-min Rain = 0
KBWS 141920Z 21012G17KT 27/11 A2996 RMK A01 T02740112  RH  038%=      5-min Rain = 0
KBWS 141925Z 20011G17KT 27/11 A2996 RMK A01 T02720114  RH  039%=      5-min Rain = 0
KBWS 141930Z 21010G15KT 27/12 A2995 RMK A01 T02740116  RH  039%=      5-min Rain = 0
KBWS 141935Z 21009KT 28/11 A2995 RMK A01 T02780113  RH  037%=      5-min Rain = 0
KBWS 141940Z 20011G17KT 28/11 A2995 RMK A01 T02770109  RH  036%=      5-min Rain = 0
KBWS 141945Z 19009G19KT 27/11 A2994 RMK A01 T02730106  RH  036%=      5-min Rain = 0
KBWS 141950Z 22010G17KT 27/11 A2994 RMK A01 T02740107  RH  036%=      5-min Rain = 0
KBWS 141955Z 22009G14KT 28/11 A2994 RMK A01 T02760112  RH  037%=      5-min Rain = 0
KBWS 142000Z 21009G16KT 28/11 A2994 RMK A01 T02750109  RH  037%=      5-min Rain = 0
KBWS 142005Z 21011KT 28/11 A2994 RMK A01 T02770109  RH  036%=      5-min Rain = 0
KBWS 142010Z 19007G12KT 28/11 A2994 RMK A01 T02750109  RH  037%=      5-min Rain = 0
KBWS 142015Z 21008G14KT 28/11 A2993 RMK A01 T02780113  RH  037%=      5-min Rain = 0
KBWS 142020Z 20008KT 28/11 A2993 RMK A01 T02810114  RH  037%=      5-min Rain = 0
KBWS 142025Z 19009G15KT 28/12 A2993 RMK A01 T02760116  RH  038%=      5-min Rain = 0
KBWS 142030Z 20011KT 28/11 A2993 RMK A01 T02780114  RH  037%=      5-min Rain = 0
KBWS 142035Z 20009G14KT 28/11 A2993 RMK A01 T02770112  RH  037%=      5-min Rain = 0
KBWS 142040Z 20010KT 28/11 A2993 RMK A01 T02780109  RH  036%=      5-min Rain = 0
KBWS 142045Z 22010KT 28/11 A2993 RMK A01 T02780113  RH  037%=      5-min Rain = 0
KBWS 142050Z 21007KT 28/11 A2993 RMK A01 T02750111  RH  037%=      5-min Rain = 0
KBWS 142055Z 20008G14KT 28/12 A2993 RMK A01 T02770120  RH  039%=      5-min Rain = 0
KBWS 142100Z 21007KT 28/12 A2993 RMK A01 T02780123  RH  040%=      5-min Rain = 0
KBWS 142105Z 21009G14KT 28/13 A2992 RMK A01 T02800125  RH  040%=      5-min Rain = 0
KBWS 142110Z 21011G16KT 28/13 A2992 RMK A01 T02790125  RH  040%=      5-min Rain = 0
KBWS 142115Z 19010KT 28/13 A2992 RMK A01 T02810128  RH  040%=      5-min Rain = 0
KBWS 142120Z 22009KT 28/13 A2992 RMK A01 T02790127  RH  041%=      5-min Rain = 0
KBWS 142125Z 20008KT 28/13 A2992 RMK A01 T02750125  RH  041%=      5-min Rain = 0
KBWS 142130Z 22008KT 27/13 A2991 RMK A01 T02720127  RH  042%=      5-min Rain = 0
KBWS 142135Z 21011KT 28/13 A2991 RMK A01 T02780127  RH  041%=      5-min Rain = 0
KBWS 142140Z 21008G13KT 28/13 A2991 RMK A01 T02770126  RH  041%=      5-min Rain = 0
KBWS 142145Z 19007KT 28/13 A2991 RMK A01 T02770127  RH  041%=      5-min Rain = 0
KBWS 142150Z 21011G17KT 27/13 A2991 RMK A01 T02720127  RH  042%=      5-min Rain = 0
KBWS 142155Z 19011KT 28/13 A2991 RMK A01 T02750129  RH  042%=      5-min Rain = 0
KBWS 142200Z 20010KT 27/13 A2991 RMK A01 T02740126  RH  042%=      5-min Rain = 0
KBWS 142205Z 21011G16KT 28/13 A2991 RMK A01 T02780127  RH  041%=      5-min Rain = 0
KBWS 142210Z 19011KT 28/13 A2991 RMK A01 T02800128  RH  041%=      5-min Rain = 0
KBWS 142215Z 21011G16KT 28/13 A2991 RMK A01 T02760125  RH  041%=      5-min Rain = 0
KBWS 142220Z 20011KT 27/13 A2991 RMK A01 T02730125  RH  042%=      5-min Rain = 0
KBWS 142225Z 20011KT 28/13 A2991 RMK A01 T02750126  RH  041%=      5-min Rain = 0
KBWS 142230Z 20009G15KT 28/13 A2991 RMK A01 T02770130  RH  042%=      5-min Rain = 0
KBWS 142235Z 20012KT 28/13 A2991 RMK A01 T02750128  RH  042%=      5-min Rain = 0
KBWS 142240Z 21011KT 27/13 A2991 RMK A01 T02740130  RH  043%=      5-min Rain = 0
KBWS 142245Z 21011G18KT 27/13 A2991 RMK A01 T02730129  RH  043%=      5-min Rain = 0
KBWS 142250Z 21011G16KT 27/13 A2991 RMK A01 T02730129  RH  043%=      5-min Rain = 0
KBWS 142255Z 20011KT 27/13 A2991 RMK A01 T02710130  RH  043%=      5-min Rain = 0
KBWS 142300Z 19013KT 27/13 A2991 RMK A01 T02700134  RH  045%=      5-min Rain = 0
KBWS 142305Z 18013KT 27/13 A2991 RMK A01 T02670134  RH  046%=      5-min Rain = 0
KBWS 142310Z 20012KT 27/13 A2991 RMK A01 T02660134  RH  046%=      5-min Rain = 0
KBWS 142315Z 21011KT 27/13 A2991 RMK A01 T02660133  RH  046%=      5-min Rain = 0
KBWS 142320Z 19011KT 27/13 A2991 RMK A01 T02650134  RH  046%=      5-min Rain = 0
KBWS 142325Z 18010KT 26/13 A2991 RMK A01 T02620133  RH  047%=      5-min Rain = 0
KBWS 142330Z 20012KT 26/13 A2991 RMK A01 T02590132  RH  047%=      5-min Rain = 0
KBWS 142335Z 20013G18KT 26/13 A2991 RMK A01 T02560132  RH  048%=      5-min Rain = 0
KBWS 142340Z 21011KT 25/13 A2991 RMK A01 T02530133  RH  049%=      5-min Rain = 0
KBWS 142345Z 20012KT 25/13 A2991 RMK A01 T02520134  RH  050%=      5-min Rain = 0
KBWS 142350Z 20011KT 25/13 A2991 RMK A01 T02530134  RH  050%=      5-min Rain = 0
KBWS 142355Z 20010KT 25/14 A2991 RMK A01 T02510135  RH  050%=      5-min Rain = 0
KBWS 150000Z 20012KT 25/14 A2991 RMK A01 T02500135  RH  051%=      5-min Rain = 0
KBWS 150005Z 20012G17KT 25/14 A2991 RMK A01 T02480135  RH  051%=      5-min Rain = 0
KBWS 150010Z 19012KT 25/13 A2991 RMK A01 T02460134  RH  052%=      5-min Rain = 0
KBWS 150015Z 19012KT 24/13 A2991 RMK A01 T02420134  RH  053%=      5-min Rain = 0
KBWS 150020Z 19011KT 24/14 A2992 RMK A01 T02400135  RH  054%=      5-min Rain = 0
KBWS 150025Z 19011KT 24/14 A2992 RMK A01 T02390135  RH  054%=      5-min Rain = 0
KBWS 150030Z 19009KT 24/14 A2992 RMK A01 T02360135  RH  055%=      5-min Rain = 0
KBWS 150035Z 19008KT 23/14 A2992 RMK A01 T02310135  RH  057%=      5-min Rain = 0
KBWS 150040Z 19009KT 23/14 A2992 RMK A01 T02290135  RH  058%=      5-min Rain = 0
KBWS 150045Z 20008KT 23/14 A2993 RMK A01 T02270135  RH  058%=      5-min Rain = 0
KBWS 150050Z 20009KT 23/14 A2993 RMK A01 T02260135  RH  059%=      5-min Rain = 0
KBWS 150055Z 21007KT 22/14 A2993 RMK A01 T02230135  RH  060%=      5-min Rain = 0
KBWS 150100Z 20007KT 22/13 A2993 RMK A01 T02170134  RH  062%=      5-min Rain = 0
KBWS 150105Z 20007KT 21/13 A2993 RMK A01 T02140133  RH  063%=      5-min Rain = 0
KBWS 150110Z 20007KT 21/13 A2993 RMK A01 T02090133  RH  064%=      5-min Rain = 0
KBWS 150115Z 20007KT 21/13 A2994 RMK A01 T02070133  RH  065%=      5-min Rain = 0
KBWS 150120Z 20007KT 20/13 A2994 RMK A01 T02030133  RH  067%=      5-min Rain = 0
KBWS 150125Z 20007KT 20/13 A2994 RMK A01 T02000132  RH  068%=      5-min Rain = 0
KBWS 150130Z 20007KT 20/13 A2994 RMK A01 T01980132  RH  069%=      5-min Rain = 0
KBWS 150135Z 21006KT 20/13 A2994 RMK A01 T01950131  RH  069%=      5-min Rain = 0
KBWS 150140Z 21006KT 19/13 A2994 RMK A01 T01940130  RH  069%=      5-min Rain = 0
KBWS 150145Z 21006KT 19/13 A2994 RMK A01 T01920129  RH  069%=      5-min Rain = 0
KBWS 150150Z 22007KT 19/13 A2995 RMK A01 T01900128  RH  070%=      5-min Rain = 0
KBWS 150155Z 22008KT 19/13 A2995 RMK A01 T01890126  RH  070%=      5-min Rain = 0
KBWS 150200Z 22008KT 19/12 A2995 RMK A01 T01890124  RH  068%=      5-min Rain = 0
KBWS 150205Z 22008KT 19/12 A2994 RMK A01 T01900121  RH  067%=      5-min Rain = 0
KBWS 150210Z 22007KT 19/12 A2994 RMK A01 T01890118  RH  066%=      5-min Rain = 0
KBWS 150215Z 22007KT 19/12 A2995 RMK A01 T01880116  RH  065%=      5-min Rain = 0
KBWS 150220Z 22007KT 19/11 A2995 RMK A01 T01890113  RH  064%=      5-min Rain = 0
KBWS 150225Z 22008KT 19/11 A2995 RMK A01 T01900111  RH  062%=      5-min Rain = 0
KBWS 150230Z 22008KT 19/11 A2995 RMK A01 T01910110  RH  061%=      5-min Rain = 0
KBWS 150235Z 22008KT 19/11 A2995 RMK A01 T01930109  RH  060%=      5-min Rain = 0
KBWS 150240Z 22008KT 19/11 A2995 RMK A01 T01910108  RH  061%=      5-min Rain = 0
KBWS 150245Z 22008KT 19/11 A2995 RMK A01 T01900107  RH  061%=      5-min Rain = 0
KBWS 150250Z 22008KT 19/11 A2995 RMK A01 T01880106  RH  061%=      5-min Rain = 0
KBWS 150255Z 22008KT 19/11 A2995 RMK A01 T01870106  RH  061%=      5-min Rain = 0
KBWS 150300Z 22007KT 18/11 A2996 RMK A01 T01840105  RH  062%=      5-min Rain = 0
KBWS 150305Z 21007KT 18/11 A2996 RMK A01 T01800105  RH  063%=      5-min Rain = 0
KBWS 150310Z 20008KT 18/10 A2996 RMK A01 T01750104  RH  065%=      5-min Rain = 0
KBWS 150315Z 20007KT 18/10 A2996 RMK A01 T01760104  RH  065%=      5-min Rain = 0
KBWS 150320Z 19007KT 17/11 A2996 RMK A01 T01720105  RH  066%=      5-min Rain = 0
KBWS 150325Z 19008KT 17/11 A2996 RMK A01 T01730106  RH  067%=      5-min Rain = 0
KBWS 150330Z 20008KT 17/11 A2996 RMK A01 T01730107  RH  067%=      5-min Rain = 0
KBWS 150335Z 20007KT 17/11 A2996 RMK A01 T01710107  RH  068%=      5-min Rain = 0
KBWS 150340Z 20007KT 17/11 A2996 RMK A01 T01700107  RH  069%=      5-min Rain = 0
KBWS 150345Z 20007KT 17/11 A2997 RMK A01 T01690107  RH  069%=      5-min Rain = 0
KBWS 150350Z 20007KT 17/11 A2997 RMK A01 T01690108  RH  069%=      5-min Rain = 0
KBWS 150355Z 20007KT 17/11 A2997 RMK A01 T01730109  RH  068%=      5-min Rain = 0
KBWS 150400Z 20007KT 18/11 A2997 RMK A01 T01770113  RH  068%=      5-min Rain = 0
KBWS 150405Z 21007KT 18/11 A2997 RMK A01 T01800114  RH  068%=      5-min Rain = 0
KBWS 150410Z 21007KT 18/11 A2997 RMK A01 T01820114  RH  067%=      5-min Rain = 0
KBWS 150415Z 21007KT 18/12 A2997 RMK A01 T01800115  RH  068%=      5-min Rain = 0
KBWS 150420Z 21007KT 18/12 A2997 RMK A01 T01770116  RH  070%=      5-min Rain = 0
KBWS 150425Z 21007KT 18/12 A2997 RMK A01 T01760117  RH  071%=      5-min Rain = 0
KBWS 150430Z 21008KT 18/12 A2997 RMK A01 T01750119  RH  072%=      5-min Rain = 0
KBWS 150435Z 21008KT 18/12 A2997 RMK A01 T01760121  RH  073%=      5-min Rain = 0
KBWS 150440Z 21008KT 18/12 A2997 RMK A01 T01750122  RH  074%=      5-min Rain = 0
KBWS 150445Z 22009KT 18/12 A2997 RMK A01 T01760123  RH  074%=      5-min Rain = 0
KBWS 150450Z 21008KT 18/12 A2997 RMK A01 T01780121  RH  072%=      5-min Rain = 0
KBWS 150455Z 21008KT 18/12 A2997 RMK A01 T01760121  RH  073%=      5-min Rain = 0

Page generated in 0.0147 seconds.